createdAt,value
2019-03-01T00:01:18.403Z,48.67
2019-03-01T00:04:11.899Z,43.07
2019-03-01T00:06:52.326Z,48.37
2019-03-01T00:10:03.874Z,47.03
2019-03-01T00:12:53.667Z,45.03
2019-03-01T00:15:54.277Z,43.60
2019-03-01T00:18:54.148Z,39.50
2019-03-01T00:22:08.841Z,43.37
2019-03-01T00:24:54.494Z,37.50
2019-03-01T00:28:14.732Z,36.87
2019-03-01T00:31:13.506Z,36.83
2019-03-01T00:34:34.195Z,37.53
2019-03-01T00:37:51.098Z,37.07
2019-03-01T00:40:59.299Z,36.90
2019-03-01T00:43:45.642Z,37.33
2019-03-01T00:46:17.736Z,35.50
2019-03-01T00:48:49.998Z,31.37
2019-03-01T00:51:22.370Z,36.20
2019-03-01T00:53:54.700Z,34.17
2019-03-01T00:56:26.992Z,32.90
2019-03-01T00:58:59.618Z,35.27
2019-03-01T01:01:31.966Z,37.80
2019-03-01T01:04:04.335Z,36.10
2019-03-01T01:06:36.509Z,35.10
2019-03-01T01:09:09.148Z,33.63
2019-03-01T01:11:41.314Z,33.67
2019-03-01T01:14:13.683Z,38.73
2019-03-01T01:16:46.206Z,37.43
2019-03-01T01:19:18.429Z,39.07
2019-03-01T01:21:50.699Z,42.47
2019-03-01T01:24:23.028Z,37.23
2019-03-01T01:26:55.442Z,42.00
2019-03-01T01:29:27.530Z,44.97
2019-03-01T01:31:59.888Z,50.10
2019-03-01T01:34:32.098Z,50.07
2019-03-01T01:37:04.334Z,47.30
2019-03-01T01:39:36.437Z,48.93
2019-03-01T01:42:08.779Z,52.73
2019-03-01T01:44:40.974Z,54.73
2019-03-01T01:47:13.358Z,45.73
2019-03-01T01:49:46.925Z,52.67
2019-03-01T01:52:19.297Z,53.17
2019-03-01T01:54:51.604Z,46.07
2019-03-01T01:57:23.833Z,42.87
2019-03-01T01:59:56.782Z,52.70
2019-03-01T02:02:29.449Z,52.87
2019-03-01T02:05:01.938Z,48.40
2019-03-01T02:07:34.266Z,45.47
2019-03-01T02:10:07.090Z,47.10
2019-03-01T02:12:39.336Z,55.40
2019-03-01T02:15:12.665Z,51.77
2019-03-01T02:17:45.311Z,46.50
2019-03-01T02:20:17.949Z,46.67
2019-03-01T02:22:50.400Z,52.00
2019-03-01T02:25:22.967Z,51.53
2019-03-01T02:27:55.160Z,49.47
2019-03-01T02:30:27.430Z,48.43
2019-03-01T02:33:00.028Z,48.80
2019-03-01T02:35:32.281Z,44.17
2019-03-01T02:38:04.623Z,44.03
2019-03-01T02:40:37.017Z,42.07
2019-03-01T02:43:09.413Z,48.37
2019-03-01T02:45:41.862Z,45.67
2019-03-01T02:48:14.150Z,45.40
2019-03-01T02:50:46.499Z,49.10
2019-03-01T02:53:18.653Z,52.33
2019-03-01T02:55:50.991Z,48.73
2019-03-01T02:58:23.243Z,43.63
2019-03-01T03:00:55.558Z,50.27
2019-03-01T03:03:28.229Z,44.70
2019-03-01T03:06:25.954Z,52.93
2019-03-01T03:08:58.514Z,45.67
2019-03-01T03:11:30.993Z,46.27
2019-03-01T03:14:03.365Z,39.70
2019-03-01T03:16:35.649Z,50.40
2019-03-01T03:19:08.051Z,46.47
2019-03-01T03:21:40.481Z,47.33
2019-03-01T03:24:12.656Z,50.77
2019-03-01T03:26:45.167Z,52.57
2019-03-01T03:29:17.263Z,48.30
2019-03-01T03:31:49.498Z,45.33
2019-03-01T03:34:21.646Z,49.33
2019-03-01T03:36:53.990Z,52.63
2019-03-01T03:39:26.107Z,43.97
2019-03-01T03:41:58.252Z,51.40
2019-03-01T03:44:30.661Z,52.13
2019-03-01T03:47:03.013Z,44.27
2019-03-01T03:49:35.301Z,48.53
2019-03-01T03:52:07.981Z,51.37
2019-03-01T03:54:40.227Z,45.57
2019-03-01T03:57:12.467Z,52.10
2019-03-01T03:59:44.768Z,46.60
2019-03-01T04:02:16.986Z,50.20
2019-03-01T04:04:49.280Z,54.20
2019-03-01T04:07:21.789Z,50.00
2019-03-01T04:09:53.971Z,51.17
2019-03-01T04:12:26.387Z,50.03
2019-03-01T04:14:58.965Z,54.13
2019-03-01T04:17:31.199Z,48.07
2019-03-01T04:20:04.804Z,52.87
2019-03-01T04:22:37.031Z,48.17
2019-03-01T04:25:09.504Z,54.33
2019-03-01T04:27:42.051Z,47.00
2019-03-01T04:30:15.141Z,48.73
2019-03-01T04:32:47.302Z,47.97
2019-03-01T04:35:19.746Z,50.73
2019-03-01T04:37:51.934Z,47.03
2019-03-01T04:40:24.886Z,48.70
2019-03-01T04:42:57.177Z,48.10
2019-03-01T04:45:29.805Z,51.70
2019-03-01T04:48:02.284Z,52.83
2019-03-01T04:50:34.554Z,46.50
2019-03-01T04:53:07.024Z,55.60
2019-03-01T04:55:39.514Z,56.53
2019-03-01T04:58:11.720Z,54.10
2019-03-01T05:00:44.343Z,53.90
2019-03-01T05:03:17.137Z,57.60
2019-03-01T05:05:49.445Z,55.53
2019-03-01T05:08:21.765Z,53.80
2019-03-01T05:10:53.985Z,54.40
2019-03-01T05:13:26.184Z,53.80
2019-03-01T05:15:58.805Z,56.60
2019-03-01T05:18:30.916Z,56.00
2019-03-01T05:21:03.265Z,59.30
2019-03-01T05:23:35.453Z,53.73
2019-03-01T05:26:07.706Z,56.30
2019-03-01T05:28:40.128Z,56.73
2019-03-01T05:31:12.449Z,56.60
2019-03-01T05:33:44.682Z,56.27
2019-03-01T05:36:17.020Z,53.83
2019-03-01T05:38:49.097Z,48.97
2019-03-01T05:41:21.605Z,58.13
2019-03-01T05:43:54.060Z,63.20
2019-03-01T05:46:26.448Z,70.70
2019-03-01T05:48:58.652Z,61.90
2019-03-01T05:51:31.305Z,60.80
2019-03-01T05:54:03.602Z,66.70
2019-03-01T05:56:36.209Z,60.47
2019-03-01T05:59:20.219Z,61.57
2019-03-01T06:02:01.943Z,58.07
2019-03-01T06:04:47.339Z,65.67
2019-03-01T06:07:28.051Z,66.03
2019-03-01T06:10:11.262Z,59.90
2019-03-01T06:13:05.056Z,61.37
2019-03-01T06:15:52.636Z,68.63
2019-03-01T06:19:24.814Z,67.20
2019-03-01T06:22:54.095Z,70.20
2019-03-01T06:25:45.720Z,78.13
2019-03-01T06:28:46.247Z,66.93
2019-03-01T06:31:50.317Z,71.37
2019-03-01T06:34:54.873Z,69.97
2019-03-01T06:38:40.157Z,69.00
2019-03-01T06:41:35.886Z,70.00
2019-03-01T06:45:01.903Z,70.30
2019-03-01T06:47:41.681Z,74.13
2019-03-01T06:50:16.031Z,67.23
2019-03-01T06:52:48.717Z,68.97
2019-03-01T06:55:50.061Z,76.73
2019-03-01T06:58:27.325Z,71.23
2019-03-01T07:01:11.587Z,79.40
2019-03-01T07:03:46.883Z,65.87
2019-03-01T07:06:19.200Z,70.47
2019-03-01T07:08:51.694Z,68.43
2019-03-01T07:11:23.922Z,68.00
2019-03-01T07:13:56.343Z,81.70
2019-03-01T07:16:28.742Z,71.27
2019-03-01T07:19:01.574Z,62.23
2019-03-01T07:21:33.922Z,62.87
2019-03-01T07:24:06.246Z,63.33
2019-03-01T07:26:38.649Z,57.17
2019-03-01T07:29:10.786Z,60.97
2019-03-01T07:31:43.289Z,68.43
2019-03-01T07:34:16.354Z,74.60
2019-03-01T07:36:49.824Z,55.40
2019-03-01T07:39:21.934Z,61.53
2019-03-01T07:41:54.517Z,55.10
2019-03-01T07:44:26.906Z,60.80
2019-03-01T07:46:59.043Z,55.90
2019-03-01T07:49:31.557Z,66.07
2019-03-01T07:52:04.928Z,61.53
2019-03-01T07:54:37.900Z,59.00
2019-03-01T07:57:11.437Z,67.97
2019-03-01T07:59:44.348Z,65.97
2019-03-01T08:02:16.581Z,58.73
2019-03-01T08:04:48.827Z,65.43
2019-03-01T08:07:23.520Z,68.33
2019-03-01T08:09:55.326Z,60.07
2019-03-01T08:12:27.488Z,62.63
2019-03-01T08:15:00.137Z,66.47
2019-03-01T08:17:32.742Z,66.67
2019-03-01T08:20:07.484Z,61.03
2019-03-01T08:22:47.981Z,75.77
2019-03-01T08:25:15.009Z,73.40
2019-03-01T08:27:48.513Z,71.33
2019-03-01T08:30:21.679Z,65.93
2019-03-01T08:32:59.250Z,70.57
2019-03-01T08:35:34.427Z,68.20
2019-03-01T08:38:06.698Z,74.37
2019-03-01T08:40:38.874Z,83.67
2019-03-01T08:43:12.995Z,75.77
2019-03-01T08:45:45.940Z,84.67
2019-03-01T08:48:18.720Z,83.13
2019-03-01T08:50:51.582Z,86.37
2019-03-01T08:53:25.966Z,86.33
2019-03-01T08:55:58.298Z,73.57
2019-03-01T08:58:31.386Z,85.00
2019-03-01T09:01:08.342Z,84.53
2019-03-01T09:03:43.215Z,91.93
2019-03-01T09:06:15.707Z,85.57
2019-03-01T09:08:48.375Z,87.33
2019-03-01T09:11:21.013Z,88.20
2019-03-01T09:13:53.131Z,94.67
2019-03-01T09:16:25.385Z,92.37
2019-03-01T09:18:57.698Z,84.73
2019-03-01T09:21:29.968Z,90.60
2019-03-01T09:24:02.515Z,98.50
2019-03-01T09:26:35.697Z,83.13
2019-03-01T09:29:08.544Z,91.97
2019-03-01T09:31:40.913Z,85.00
2019-03-01T09:34:13.410Z,84.87
2019-03-01T09:36:54.935Z,97.87
2019-03-01T09:39:25.856Z,88.43
2019-03-01T09:42:03.233Z,85.80
2019-03-01T09:44:34.698Z,89.60
2019-03-01T09:47:06.853Z,94.00
2019-03-01T09:49:39.149Z,91.07
2019-03-01T09:52:11.392Z,99.37
2019-03-01T09:54:43.548Z,88.43
2019-03-01T09:57:16.479Z,98.20
2019-03-01T09:59:49.056Z,107.43
2019-03-01T10:02:21.477Z,106.57
2019-03-01T10:04:53.966Z,103.67
2019-03-01T10:07:26.409Z,106.67
2019-03-01T10:09:58.582Z,100.87
2019-03-01T10:12:31.377Z,110.63
2019-03-01T10:15:04.563Z,114.40
2019-03-01T10:17:37.116Z,103.20
2019-03-01T10:20:10.916Z,103.30
2019-03-01T10:22:43.459Z,93.73
2019-03-01T10:25:16.078Z,90.17
2019-03-01T10:27:48.390Z,103.53
2019-03-01T10:30:20.847Z,104.20
2019-03-01T10:32:53.472Z,107.23
2019-03-01T10:35:26.058Z,106.90
2019-03-01T10:37:58.292Z,109.63
2019-03-01T10:40:30.746Z,113.97
2019-03-01T10:43:03.408Z,110.20
2019-03-01T10:45:36.025Z,116.47
2019-03-01T10:48:08.828Z,127.10
2019-03-01T10:50:41.148Z,123.90
2019-03-01T10:53:13.409Z,109.17
2019-03-01T10:55:46.027Z,111.00
2019-03-01T10:58:18.365Z,124.07
2019-03-01T11:00:50.704Z,111.43
2019-03-01T11:03:23.685Z,106.70
2019-03-01T11:05:56.193Z,97.73
2019-03-01T11:08:28.677Z,107.30
2019-03-01T11:11:01.163Z,96.07
2019-03-01T11:13:33.506Z,93.93
2019-03-01T11:16:05.790Z,95.20
2019-03-01T11:18:38.267Z,92.23
2019-03-01T11:21:10.388Z,92.07
2019-03-01T11:23:42.859Z,93.40
2019-03-01T11:26:14.992Z,88.53
2019-03-01T11:28:50.768Z,84.43
2019-03-01T11:31:22.951Z,82.97
2019-03-01T11:33:55.336Z,90.13
2019-03-01T11:36:27.875Z,86.93
2019-03-01T11:39:00.046Z,84.73
2019-03-01T11:41:32.466Z,82.27
2019-03-01T11:44:05.157Z,81.90
2019-03-01T11:46:37.374Z,75.33
2019-03-01T11:49:09.788Z,81.07
2019-03-01T11:51:42.028Z,80.70
2019-03-01T11:54:14.293Z,76.83
2019-03-01T11:56:46.859Z,67.83
2019-03-01T11:59:19.175Z,71.73
2019-03-01T12:01:52.528Z,73.17
2019-03-01T12:04:24.892Z,67.80
2019-03-01T12:06:57.516Z,78.93
2019-03-01T12:09:29.662Z,67.53
2019-03-01T12:12:02.720Z,78.50
2019-03-01T12:14:35.529Z,65.80
2019-03-01T12:17:08.279Z,66.67
2019-03-01T12:19:55.099Z,70.93
2019-03-01T12:22:37.043Z,57.27
2019-03-01T12:25:10.516Z,52.67
2019-03-01T12:27:43.245Z,62.70
2019-03-01T12:30:17.979Z,54.80
2019-03-01T12:32:54.385Z,50.03
2019-03-01T12:35:27.896Z,57.87
2019-03-01T12:38:00.209Z,55.70
2019-03-01T12:40:33.024Z,51.07
2019-03-01T12:43:06.203Z,47.73
2019-03-01T12:45:38.533Z,51.67
2019-03-01T12:48:10.719Z,54.70
2019-03-01T12:50:43.127Z,40.97
2019-03-01T12:53:15.241Z,51.23
2019-03-01T12:55:47.533Z,49.00
2019-03-01T12:58:19.871Z,41.27
2019-03-01T13:00:51.992Z,34.67
2019-03-01T13:03:24.180Z,33.40
2019-03-01T13:05:56.945Z,32.40
2019-03-01T13:08:29.205Z,32.10
2019-03-01T13:11:01.448Z,24.47
2019-03-01T13:13:34.688Z,30.23
2019-03-01T13:16:07.850Z,27.90
2019-03-01T13:18:40.117Z,25.40
2019-03-01T13:21:13.087Z,29.07
2019-03-01T13:23:45.922Z,26.57
2019-03-01T13:26:18.597Z,22.63
2019-03-01T13:28:50.837Z,19.13
2019-03-01T13:31:23.087Z,28.67
2019-03-01T13:33:55.266Z,21.80
2019-03-01T13:36:27.758Z,24.77
2019-03-01T13:39:00.052Z,29.47
2019-03-01T13:41:34.039Z,27.90
2019-03-01T13:44:06.532Z,25.00
2019-03-01T13:46:38.968Z,21.27
2019-03-01T13:49:11.100Z,19.67
2019-03-01T13:51:44.073Z,17.67
2019-03-01T13:54:16.275Z,20.93
2019-03-01T13:56:50.817Z,17.67
2019-03-01T13:59:23.031Z,15.77
2019-03-01T14:01:56.676Z,23.60
2019-03-01T14:04:28.853Z,17.10
2019-03-01T14:07:01.164Z,15.63
2019-03-01T14:09:34.494Z,15.47
2019-03-01T14:12:06.880Z,14.40
2019-03-01T14:14:39.296Z,19.63
2019-03-01T14:17:12.062Z,15.20
2019-03-01T14:19:44.160Z,14.17
2019-03-01T14:22:16.443Z,13.70
2019-03-01T14:24:48.640Z,16.00
2019-03-01T14:27:21.143Z,18.43
2019-03-01T14:29:53.789Z,16.73
2019-03-01T14:32:26.545Z,12.10
2019-03-01T14:34:59.340Z,13.87
2019-03-01T14:37:32.569Z,13.67
2019-03-01T14:40:06.263Z,13.77
2019-03-01T14:42:39.062Z,13.23
2019-03-01T14:45:14.430Z,15.00
2019-03-01T14:47:47.032Z,12.63
2019-03-01T14:50:20.595Z,12.33
2019-03-01T14:52:56.762Z,8.53
2019-03-01T14:55:36.389Z,12.20
2019-03-01T14:58:18.986Z,11.37
2019-03-01T15:01:03.046Z,11.53
2019-03-01T15:03:37.356Z,14.03
2019-03-01T15:06:09.741Z,13.90
2019-03-01T15:08:44.121Z,13.60
2019-03-01T15:11:18.844Z,10.93
2019-03-01T15:13:55.408Z,11.10
2019-03-01T15:16:27.984Z,12.87
2019-03-01T15:19:00.386Z,6.27
2019-03-01T15:21:34.112Z,11.93
2019-03-01T15:24:06.799Z,10.20
2019-03-01T15:26:39.374Z,11.93
2019-03-01T15:29:11.868Z,10.77
2019-03-01T15:31:44.070Z,9.47
2019-03-01T15:34:16.339Z,8.77
2019-03-01T15:36:48.760Z,10.97
2019-03-01T15:39:21.424Z,9.17
2019-03-01T15:41:53.899Z,13.13
2019-03-01T15:44:26.688Z,11.53
2019-03-01T15:46:59.127Z,11.20
2019-03-01T15:49:32.055Z,9.43
2019-03-01T15:52:04.450Z,11.83
2019-03-01T15:54:36.815Z,11.70
2019-03-01T15:57:09.108Z,10.60
2019-03-01T15:59:44.355Z,11.17
2019-03-01T16:02:15.795Z,11.87
2019-03-01T16:04:48.706Z,12.27
2019-03-01T16:07:21.472Z,12.70
2019-03-01T16:09:54.308Z,12.43
2019-03-01T16:12:28.970Z,14.70
2019-03-01T16:15:01.574Z,11.07
2019-03-01T16:17:34.045Z,11.97
2019-03-01T16:20:09.221Z,15.83
2019-03-01T16:22:41.542Z,10.37
2019-03-01T16:25:13.943Z,9.77
2019-03-01T16:27:46.809Z,10.03
2019-03-01T16:30:19.325Z,10.17
2019-03-01T16:32:51.892Z,11.23
2019-03-01T16:35:24.713Z,7.83
2019-03-01T16:38:01.145Z,12.33
2019-03-01T16:40:32.088Z,12.47
2019-03-01T16:43:04.408Z,9.63
2019-03-01T16:45:36.731Z,9.53
2019-03-01T16:48:08.951Z,11.70
2019-03-01T16:50:44.020Z,12.57
2019-03-01T16:53:15.691Z,12.97
2019-03-01T16:55:49.319Z,11.17
2019-03-01T16:58:24.494Z,11.20
2019-03-01T17:00:55.757Z,12.73
2019-03-01T17:03:28.308Z,14.50
2019-03-01T17:06:00.391Z,13.70
2019-03-01T17:08:32.812Z,12.77
2019-03-01T17:11:05.870Z,14.63
2019-03-01T17:13:38.811Z,11.37
2019-03-01T17:16:11.387Z,8.13
2019-03-01T17:18:44.562Z,11.40
2019-03-01T17:21:18.138Z,13.77
2019-03-01T17:23:50.378Z,9.93
2019-03-01T17:26:26.312Z,14.53
2019-03-01T17:28:59.748Z,10.90
2019-03-01T17:31:31.661Z,12.87
2019-03-01T17:34:04.543Z,13.37
2019-03-01T17:36:37.731Z,11.30
2019-03-01T17:39:13.356Z,12.93
2019-03-01T17:41:48.249Z,14.73
2019-03-01T17:44:20.459Z,12.13
2019-03-01T17:46:52.657Z,14.67
2019-03-01T17:49:25.529Z,12.90
2019-03-01T17:51:57.900Z,16.73
2019-03-01T17:54:30.250Z,13.67
2019-03-01T17:57:02.618Z,12.50
2019-03-01T17:59:35.128Z,10.27
2019-03-01T18:02:07.546Z,11.57
2019-03-01T18:04:39.866Z,10.27
2019-03-01T18:07:12.310Z,12.63
2019-03-01T18:09:44.805Z,10.93
2019-03-01T18:12:17.491Z,11.00
2019-03-01T18:14:51.677Z,15.73
2019-03-01T18:17:24.169Z,9.87
2019-03-01T18:19:58.777Z,12.53
2019-03-01T18:22:30.660Z,9.13
2019-03-01T18:25:03.645Z,11.83
2019-03-01T18:27:36.316Z,13.00
2019-03-01T18:30:15.991Z,7.60
2019-03-01T18:32:47.087Z,6.77
2019-03-01T18:35:19.638Z,6.80
2019-03-01T18:37:55.086Z,9.60
2019-03-01T18:40:25.905Z,9.77
2019-03-01T18:42:58.764Z,13.33
2019-03-01T18:45:30.971Z,19.10
2019-03-01T18:48:05.020Z,9.50
2019-03-01T18:50:37.636Z,7.60
2019-03-01T18:53:09.834Z,7.40
2019-03-01T18:55:42.256Z,10.00
2019-03-01T18:58:14.987Z,6.80
2019-03-01T19:00:47.487Z,9.97
2019-03-01T19:03:19.752Z,7.80
2019-03-01T19:05:52.176Z,9.60
2019-03-01T19:08:24.500Z,10.20
2019-03-01T19:10:59.748Z,9.20
2019-03-01T19:13:31.169Z,5.97
2019-03-01T19:16:03.579Z,9.53
2019-03-01T19:18:35.741Z,11.33
2019-03-01T19:21:08.388Z,6.77
2019-03-01T19:23:40.686Z,4.63
2019-03-01T19:26:13.131Z,6.80
2019-03-01T19:28:45.646Z,10.23
2019-03-01T19:31:17.796Z,12.63
2019-03-01T19:33:50.171Z,8.47
2019-03-01T19:36:22.312Z,9.03
2019-03-01T19:38:56.782Z,8.03
2019-03-01T19:41:28.760Z,8.80
2019-03-01T19:44:01.257Z,9.83
2019-03-01T19:46:33.373Z,6.73
2019-03-01T19:49:05.518Z,9.30
2019-03-01T19:51:38.511Z,8.73
2019-03-01T19:54:10.985Z,10.73
2019-03-01T19:56:43.718Z,8.07
2019-03-01T19:59:15.938Z,13.10
2019-03-01T20:01:49.397Z,7.53
2019-03-01T20:04:22.273Z,9.33
2019-03-01T20:06:54.648Z,8.97
2019-03-01T20:09:27.136Z,11.00
2019-03-01T20:12:02.636Z,6.63
2019-03-01T20:14:33.742Z,10.57
2019-03-01T20:17:06.797Z,11.30
2019-03-01T20:19:39.045Z,10.23
2019-03-01T20:22:11.367Z,12.30
2019-03-01T20:24:43.469Z,9.17
2019-03-01T20:27:15.918Z,12.70
2019-03-01T20:29:49.493Z,11.03
2019-03-01T20:32:22.118Z,9.93
2019-03-01T20:34:54.506Z,10.23
2019-03-01T20:37:27.851Z,8.73
2019-03-01T20:40:00.949Z,10.93
2019-03-01T20:42:33.252Z,12.73
2019-03-01T20:45:09.170Z,10.63
2019-03-01T20:47:41.921Z,7.00
2019-03-01T20:50:15.695Z,8.97
2019-03-01T20:52:48.364Z,6.43
2019-03-01T20:55:20.659Z,9.00
2019-03-01T20:57:53.286Z,10.23
2019-03-01T21:00:26.461Z,7.77
2019-03-01T21:02:59.563Z,8.03
2019-03-01T21:05:31.706Z,6.90
2019-03-01T21:08:04.125Z,8.20
2019-03-01T21:10:36.439Z,6.53
2019-03-01T21:13:12.454Z,12.80
2019-03-01T21:15:46.121Z,9.43
2019-03-01T21:18:18.370Z,9.53
2019-03-01T21:20:53.674Z,9.83
2019-03-01T21:23:25.014Z,9.00
2019-03-01T21:25:57.224Z,8.50
2019-03-01T21:28:29.694Z,7.87
2019-03-01T21:31:02.255Z,10.37
2019-03-01T21:33:34.457Z,8.47
2019-03-01T21:36:06.656Z,10.17
2019-03-01T21:38:38.958Z,9.93
2019-03-01T21:41:11.329Z,6.90
2019-03-01T21:43:44.012Z,10.60
2019-03-01T21:46:16.319Z,9.83
2019-03-01T21:48:49.065Z,8.13
2019-03-01T21:51:21.285Z,9.03
2019-03-01T21:53:53.785Z,10.50
2019-03-01T21:56:26.039Z,10.37
2019-03-01T21:58:58.255Z,9.60
2019-03-01T22:01:30.687Z,8.33
2019-03-01T22:04:03.683Z,11.30
2019-03-01T22:06:36.162Z,10.00
2019-03-01T22:09:09.029Z,7.63
2019-03-01T22:11:41.269Z,9.83
2019-03-01T22:14:14.316Z,10.97
2019-03-01T22:16:46.932Z,10.00
2019-03-01T22:19:19.076Z,8.87
2019-03-01T22:21:54.658Z,12.63
2019-03-01T22:24:26.570Z,8.63
2019-03-01T22:26:59.022Z,8.60
2019-03-01T22:29:31.215Z,8.03
2019-03-01T22:32:03.741Z,10.50
2019-03-01T22:34:35.992Z,9.73
2019-03-01T22:37:08.468Z,13.03
2019-03-01T22:39:42.746Z,8.83
2019-03-01T22:42:15.216Z,6.97
2019-03-01T22:44:47.315Z,8.57
2019-03-01T22:47:19.444Z,9.77
2019-03-01T22:49:51.788Z,8.03
2019-03-01T22:52:26.630Z,11.83
2019-03-01T22:55:01.544Z,8.03
2019-03-01T22:57:32.462Z,8.67
2019-03-01T23:00:08.282Z,12.97
2019-03-01T23:02:43.516Z,11.00
2019-03-01T23:05:15.496Z,9.50
2019-03-01T23:07:47.835Z,9.03
2019-03-01T23:10:21.564Z,15.87
2019-03-01T23:12:54.026Z,9.53
2019-03-01T23:15:26.222Z,12.87
2019-03-01T23:17:58.312Z,10.00
2019-03-01T23:20:30.603Z,7.83
2019-03-01T23:23:03.045Z,9.30
2019-03-01T23:25:35.294Z,7.67
2019-03-01T23:28:08.400Z,10.47
2019-03-01T23:30:41.550Z,7.93
2019-03-01T23:33:14.050Z,10.57
2019-03-01T23:35:49.606Z,10.70
2019-03-01T23:38:20.765Z,8.77
2019-03-01T23:40:53.160Z,10.03
2019-03-01T23:43:27.648Z,9.13
2019-03-01T23:45:59.807Z,10.10
2019-03-01T23:48:32.289Z,7.33
2019-03-01T23:51:06.660Z,8.20
2019-03-01T23:53:38.593Z,10.37
2019-03-01T23:56:12.049Z,9.00
2019-03-01T23:58:48.054Z,8.13
